AAL1032 MDPP-KJFK
Flight info
| Callsign | AAL1032 |
|---|---|
| Flight time | 3h 19m |
| Altitude | 41000 |
| Route | LERED3C LERED DCT LUCTI/M084F400 L454 OKONU/N0478F410 DCT YAALE Y495 MOUGH/N0477F400 Y495 CAMRN CAMRN5 |
| Aircraft | MD11/H-SDE1E2E3FGHIJ2J3J4J5M1RWXY/LB1D1 |
Departure
| Time | 2026-05-05 19:36 |
|---|---|
| Airport | Gregorio Luperon International Airport (MDPP) |
Arrival
| Time | 2026-05-05 22:55 |
|---|---|
| Airport | John F. Kennedy International Airport (KJFK) |
| Time | Latitude | Longitude | Altitude | Speed | Heading |
|---|---|---|---|---|---|
| 2026-05-05 18:46 | 19.75618 | -70.56433 | 47 ft | 0 kts | 210° |
| 2026-05-05 19:23 | 19.75631 | -70.56425 | 45 ft | 4 kts | 181° |
| 2026-05-05 19:23 | 19.75650 | -70.56430 | 40 ft | 4 kts | 167° |
| 2026-05-05 19:24 | 19.75667 | -70.56431 | 40 ft | 4 kts | 190° |
| 2026-05-05 19:24 | 19.75692 | -70.56426 | 38 ft | 4 kts | 206° |
| 2026-05-05 19:24 | 19.75706 | -70.56416 | 37 ft | 2 kts | 252° |
| 2026-05-05 19:24 | 19.75707 | -70.56414 | 37 ft | 0 kts | 253° |
| 2026-05-05 19:27 | 19.75703 | -70.56427 | 37 ft | 3 kts | 252° |
| 2026-05-05 19:28 | 19.75692 | -70.56462 | 38 ft | 6 kts | 252° |
| 2026-05-05 19:28 | 19.75675 | -70.56519 | 39 ft | 9 kts | 251° |
| 2026-05-05 19:28 | 19.75658 | -70.56578 | 36 ft | 10 kts | 253° |
| 2026-05-05 19:28 | 19.75634 | -70.56660 | 39 ft | 13 kts | 253° |
| 2026-05-05 19:29 | 19.75606 | -70.56760 | 38 ft | 16 kts | 253° |
| 2026-05-05 19:29 | 19.75570 | -70.56885 | 34 ft | 20 kts | 252° |
| 2026-05-05 19:29 | 19.75535 | -70.57018 | 31 ft | 12 kts | 264° |
| 2026-05-05 19:29 | 19.75568 | -70.57089 | 30 ft | 11 kts | 311° |
| 2026-05-05 19:30 | 19.75620 | -70.57145 | 28 ft | 10 kts | 313° |
| 2026-05-05 19:30 | 19.75667 | -70.57198 | 30 ft | 9 kts | 313° |
| 2026-05-05 19:30 | 19.75698 | -70.57257 | 29 ft | 10 kts | 284° |
| 2026-05-05 19:30 | 19.75690 | -70.57336 | 29 ft | 12 kts | 253° |
| 2026-05-05 19:31 | 19.75666 | -70.57420 | 29 ft | 12 kts | 253° |
| 2026-05-05 19:31 | 19.75642 | -70.57508 | 28 ft | 13 kts | 252° |
| 2026-05-05 19:31 | 19.75614 | -70.57601 | 27 ft | 14 kts | 253° |
| 2026-05-05 19:31 | 19.75583 | -70.57710 | 32 ft | 16 kts | 253° |
| 2026-05-05 19:32 | 19.75548 | -70.57831 | 34 ft | 18 kts | 253° |
| 2026-05-05 19:32 | 19.75506 | -70.57976 | 35 ft | 23 kts | 253° |
| 2026-05-05 19:32 | 19.75461 | -70.58133 | 37 ft | 21 kts | 253° |
| 2026-05-05 19:32 | 19.75417 | -70.58278 | 35 ft | 20 kts | 246° |
| 2026-05-05 19:33 | 19.75372 | -70.58359 | 34 ft | 3 kts | 251° |
| 2026-05-05 19:33 | 19.75372 | -70.58370 | 35 ft | 1 kts | 275° |
| 2026-05-05 19:33 | 19.75374 | -70.58372 | 35 ft | 0 kts | 292° |
| 2026-05-05 19:33 | 19.75376 | -70.58374 | 35 ft | 0 kts | 303° |
| 2026-05-05 19:34 | 19.75380 | -70.58375 | 35 ft | 1 kts | 324° |
| 2026-05-05 19:34 | 19.75384 | -70.58374 | 35 ft | 0 kts | 346° |
| 2026-05-05 19:34 | 19.75388 | -70.58372 | 35 ft | 1 kts | 10° |
| 2026-05-05 19:35 | 19.75399 | -70.58346 | 35 ft | 5 kts | 72° |
| 2026-05-05 19:35 | 19.75402 | -70.58338 | 35 ft | 0 kts | 72° |
| 2026-05-05 19:35 | 19.75430 | -70.58241 | 36 ft | 60 kts | 73° |
| 2026-05-05 19:35 | 19.75679 | -70.57368 | 35 ft | 181 kts | 73° |
| 2026-05-05 19:36 | 19.76072 | -70.56040 | 1177 ft | 171 kts | 73° |
| 2026-05-05 19:36 | 19.76420 | -70.54886 | 2871 ft | 162 kts | 77° |
| 2026-05-05 19:36 | 19.76765 | -70.53663 | 3834 ft | 194 kts | 79° |
| 2026-05-05 19:36 | 19.77195 | -70.52077 | 4052 ft | 252 kts | 78° |
| 2026-05-05 19:37 | 19.77749 | -70.50222 | 4929 ft | 274 kts | 72° |
| 2026-05-05 19:37 | 19.78733 | -70.48469 | 5290 ft | 282 kts | 49° |
| 2026-05-05 19:37 | 19.80395 | -70.47350 | 5652 ft | 289 kts | 19° |
| 2026-05-05 19:37 | 19.82401 | -70.47038 | 5938 ft | 294 kts | 2° |
| 2026-05-05 19:38 | 19.84454 | -70.47054 | 5983 ft | 295 kts | 358° |
| 2026-05-05 19:38 | 19.86518 | -70.47145 | 6006 ft | 295 kts | 358° |
| 2026-05-05 19:38 | 19.88542 | -70.47233 | 6003 ft | 295 kts | 358° |
| 2026-05-05 19:38 | 19.90598 | -70.47309 | 5988 ft | 295 kts | 359° |
| 2026-05-05 19:39 | 19.92650 | -70.47317 | 5996 ft | 295 kts | 1° |
| 2026-05-05 19:39 | 19.94705 | -70.47247 | 7007 ft | 290 kts | 2° |
| 2026-05-05 19:39 | 19.96745 | -70.47159 | 8334 ft | 296 kts | 2° |
| 2026-05-05 19:39 | 19.98825 | -70.47064 | 9593 ft | 301 kts | 2° |
| 2026-05-05 19:40 | 20.00964 | -70.46964 | 10411 ft | 324 kts | 2° |
| 2026-05-05 19:40 | 20.03376 | -70.46851 | 10565 ft | 367 kts | 2° |
| 2026-05-05 19:40 | 20.05981 | -70.46727 | 11495 ft | 378 kts | 1° |
| 2026-05-05 19:40 | 20.08618 | -70.46600 | 12738 ft | 381 kts | 1° |
| 2026-05-05 19:41 | 20.11279 | -70.46471 | 13909 ft | 385 kts | 0° |
| 2026-05-05 19:41 | 20.13941 | -70.46343 | 14846 ft | 391 kts | 0° |
| 2026-05-05 19:41 | 20.16686 | -70.46211 | 15770 ft | 397 kts | 0° |
| 2026-05-05 19:41 | 20.19473 | -70.46078 | 16669 ft | 403 kts | 360° |
| 2026-05-05 19:42 | 20.22302 | -70.45942 | 17549 ft | 409 kts | 360° |
| 2026-05-05 19:42 | 20.25132 | -70.45806 | 18368 ft | 415 kts | 359° |
| 2026-05-05 19:42 | 20.28038 | -70.45666 | 19136 ft | 420 kts | 359° |
| 2026-05-05 19:42 | 20.30972 | -70.45523 | 19889 ft | 424 kts | 359° |
| 2026-05-05 19:43 | 20.33934 | -70.45380 | 20640 ft | 427 kts | 359° |
| 2026-05-05 19:43 | 20.36930 | -70.45234 | 21409 ft | 431 kts | 359° |
| 2026-05-05 19:43 | 20.39952 | -70.45088 | 22185 ft | 435 kts | 359° |
| 2026-05-05 19:43 | 20.42952 | -70.44847 | 22919 ft | 442 kts | 4° |
| 2026-05-05 19:44 | 20.45994 | -70.44235 | 23706 ft | 448 kts | 9° |
| 2026-05-05 19:44 | 20.49038 | -70.43402 | 24379 ft | 454 kts | 12° |
| 2026-05-05 19:44 | 20.52097 | -70.42478 | 25074 ft | 459 kts | 12° |
| 2026-05-05 19:44 | 20.55185 | -70.41529 | 25794 ft | 463 kts | 12° |
| 2026-05-05 19:45 | 20.58313 | -70.40579 | 26487 ft | 468 kts | 12° |
| 2026-05-05 19:45 | 20.61429 | -70.39650 | 27167 ft | 472 kts | 12° |
| 2026-05-05 19:45 | 20.64618 | -70.38714 | 27861 ft | 477 kts | 11° |
| 2026-05-05 19:45 | 20.67837 | -70.37778 | 28536 ft | 481 kts | 11° |
| 2026-05-05 19:46 | 20.71095 | -70.36836 | 29204 ft | 486 kts | 11° |
| 2026-05-05 19:46 | 20.74381 | -70.35886 | 29857 ft | 491 kts | 11° |
| 2026-05-05 19:46 | 20.77701 | -70.34926 | 30409 ft | 496 kts | 11° |
| 2026-05-05 19:46 | 20.81011 | -70.33967 | 30905 ft | 499 kts | 11° |
| 2026-05-05 19:47 | 20.84370 | -70.32993 | 31517 ft | 499 kts | 11° |
| 2026-05-05 19:47 | 20.87718 | -70.32019 | 32164 ft | 498 kts | 11° |
| 2026-05-05 19:47 | 20.91059 | -70.31048 | 32808 ft | 497 kts | 11° |
| 2026-05-05 19:47 | 20.94403 | -70.30075 | 33425 ft | 496 kts | 11° |
| 2026-05-05 19:48 | 20.97693 | -70.29118 | 34034 ft | 494 kts | 11° |
| 2026-05-05 19:48 | 21.01005 | -70.28155 | 34558 ft | 493 kts | 11° |
| 2026-05-05 19:48 | 21.04320 | -70.27192 | 35043 ft | 492 kts | 11° |
| 2026-05-05 19:48 | 21.07630 | -70.26229 | 35526 ft | 492 kts | 11° |
| 2026-05-05 19:49 | 21.10938 | -70.25266 | 36004 ft | 491 kts | 11° |
| 2026-05-05 19:49 | 21.13129 | -70.24628 | 36315 ft | 490 kts | 11° |
| 2026-05-05 19:49 | 21.17488 | -70.23359 | 36923 ft | 489 kts | 11° |
| 2026-05-05 19:49 | 21.20779 | -70.22399 | 37364 ft | 488 kts | 11° |
| 2026-05-05 19:50 | 21.24068 | -70.21440 | 37783 ft | 487 kts | 11° |
| 2026-05-05 19:50 | 21.27341 | -70.20483 | 38226 ft | 487 kts | 11° |
| 2026-05-05 19:50 | 21.30565 | -70.19539 | 38630 ft | 486 kts | 11° |
| 2026-05-05 19:50 | 21.33828 | -70.18585 | 38971 ft | 486 kts | 11° |
| 2026-05-05 19:51 | 21.37090 | -70.17631 | 39293 ft | 485 kts | 11° |
| 2026-05-05 19:51 | 21.40350 | -70.16679 | 39607 ft | 485 kts | 11° |
| 2026-05-05 19:51 | 21.43604 | -70.15727 | 39917 ft | 484 kts | 11° |
| 2026-05-05 19:51 | 21.46860 | -70.14775 | 40217 ft | 484 kts | 11° |
| 2026-05-05 19:52 | 21.50119 | -70.13821 | 40506 ft | 483 kts | 11° |
| 2026-05-05 19:52 | 21.53340 | -70.12878 | 40788 ft | 483 kts | 11° |
| 2026-05-05 19:52 | 21.56599 | -70.11923 | 40992 ft | 484 kts | 10° |
| 2026-05-05 19:53 | 21.63114 | -70.10014 | 41049 ft | 484 kts | 11° |
| 2026-05-05 19:53 | 21.69585 | -70.08115 | 41051 ft | 484 kts | 11° |
| 2026-05-05 19:54 | 21.76107 | -70.06199 | 41053 ft | 484 kts | 11° |
| 2026-05-05 19:54 | 21.82583 | -70.04296 | 41049 ft | 484 kts | 11° |
| 2026-05-05 19:55 | 21.89100 | -70.02378 | 41049 ft | 484 kts | 11° |
| 2026-05-05 19:55 | 21.95560 | -70.00475 | 41052 ft | 484 kts | 10° |
| 2026-05-05 19:56 | 22.02069 | -69.98556 | 41048 ft | 484 kts | 10° |
| 2026-05-05 19:56 | 22.08543 | -69.96642 | 41053 ft | 484 kts | 10° |
| 2026-05-05 19:57 | 22.15051 | -69.94716 | 41055 ft | 484 kts | 10° |
| 2026-05-05 19:57 | 22.21570 | -69.92787 | 41055 ft | 484 kts | 10° |
| 2026-05-05 19:58 | 22.28042 | -69.90872 | 41052 ft | 484 kts | 10° |
| 2026-05-05 19:58 | 22.34558 | -69.88942 | 41053 ft | 484 kts | 10° |
| 2026-05-05 19:59 | 22.41025 | -69.87024 | 41059 ft | 484 kts | 10° |
| 2026-05-05 19:59 | 22.47530 | -69.85093 | 41059 ft | 484 kts | 10° |
| 2026-05-05 20:00 | 22.54028 | -69.83163 | 41056 ft | 484 kts | 10° |
| 2026-05-05 20:00 | 22.59438 | -69.81554 | 41059 ft | 484 kts | 10° |
| 2026-05-05 20:01 | 22.67009 | -69.79300 | 41057 ft | 484 kts | 10° |
| 2026-05-05 20:01 | 22.72431 | -69.77685 | 41056 ft | 484 kts | 10° |
| 2026-05-05 20:02 | 22.78910 | -69.75752 | 41061 ft | 484 kts | 10° |
| 2026-05-05 20:02 | 22.85435 | -69.73804 | 41063 ft | 484 kts | 10° |
| 2026-05-05 20:03 | 22.91899 | -69.71867 | 41061 ft | 484 kts | 10° |
| 2026-05-05 20:03 | 22.98407 | -69.69918 | 41059 ft | 484 kts | 10° |
| 2026-05-05 20:04 | 23.04889 | -69.67977 | 41063 ft | 484 kts | 10° |
| 2026-05-05 20:04 | 23.11405 | -69.66024 | 41061 ft | 485 kts | 10° |
| 2026-05-05 20:05 | 23.17917 | -69.64070 | 41059 ft | 485 kts | 10° |
| 2026-05-05 20:05 | 23.24391 | -69.62126 | 41061 ft | 485 kts | 10° |
| 2026-05-05 20:06 | 23.30912 | -69.60165 | 41063 ft | 485 kts | 10° |
| 2026-05-05 20:06 | 23.37384 | -69.58218 | 41063 ft | 485 kts | 10° |
| 2026-05-05 20:07 | 23.43911 | -69.56252 | 41050 ft | 486 kts | 10° |
| 2026-05-05 20:07 | 23.50435 | -69.54285 | 41058 ft | 486 kts | 10° |
| 2026-05-05 20:08 | 23.56961 | -69.52315 | 41064 ft | 487 kts | 10° |
| 2026-05-05 20:08 | 23.63495 | -69.50340 | 41069 ft | 488 kts | 10° |
| 2026-05-05 20:09 | 23.70033 | -69.48358 | 41068 ft | 488 kts | 10° |
| 2026-05-05 20:09 | 23.76586 | -69.46370 | 41073 ft | 489 kts | 10° |
| 2026-05-05 20:10 | 23.83130 | -69.44386 | 41071 ft | 489 kts | 10° |
| 2026-05-05 20:10 | 23.89665 | -69.42403 | 41067 ft | 490 kts | 10° |
| 2026-05-05 20:11 | 23.96252 | -69.40402 | 41072 ft | 490 kts | 10° |
| 2026-05-05 20:11 | 24.02832 | -69.38401 | 41073 ft | 490 kts | 10° |
| 2026-05-05 20:12 | 24.09394 | -69.36403 | 41074 ft | 491 kts | 10° |
| 2026-05-05 20:12 | 24.16000 | -69.34390 | 41069 ft | 491 kts | 10° |
| 2026-05-05 20:13 | 24.22560 | -69.32389 | 41072 ft | 492 kts | 10° |
| 2026-05-05 20:13 | 24.29170 | -69.30371 | 41073 ft | 493 kts | 10° |
| 2026-05-05 20:14 | 24.35805 | -69.28342 | 41073 ft | 493 kts | 10° |
| 2026-05-05 20:14 | 24.42400 | -69.26324 | 41073 ft | 494 kts | 10° |
| 2026-05-05 20:15 | 24.49034 | -69.24288 | 41072 ft | 495 kts | 10° |
| 2026-05-05 20:15 | 24.55650 | -69.22254 | 41072 ft | 495 kts | 10° |
| 2026-05-05 20:16 | 24.62296 | -69.20211 | 41072 ft | 496 kts | 10° |
| 2026-05-05 20:16 | 24.68936 | -69.18170 | 41072 ft | 496 kts | 10° |
| 2026-05-05 20:17 | 24.75603 | -69.16119 | 41075 ft | 497 kts | 10° |
| 2026-05-05 20:17 | 24.82245 | -69.14073 | 41073 ft | 498 kts | 10° |
| 2026-05-05 20:18 | 24.88943 | -69.12007 | 41071 ft | 498 kts | 10° |
| 2026-05-05 20:18 | 24.95590 | -69.09965 | 41078 ft | 498 kts | 9° |
| 2026-05-05 20:19 | 25.02359 | -69.09126 | 41073 ft | 482 kts | 350° |
| 2026-05-05 20:19 | 25.08843 | -69.10433 | 41069 ft | 473 kts | 339° |
| 2026-05-05 20:20 | 25.15246 | -69.12185 | 41069 ft | 475 kts | 341° |
| 2026-05-05 20:20 | 25.21730 | -69.13702 | 41070 ft | 477 kts | 342° |
| 2026-05-05 20:21 | 25.28240 | -69.15071 | 41070 ft | 477 kts | 343° |
| 2026-05-05 20:21 | 25.34787 | -69.16418 | 41068 ft | 477 kts | 343° |
| 2026-05-05 20:22 | 25.41287 | -69.17764 | 41066 ft | 477 kts | 343° |
| 2026-05-05 20:22 | 25.47822 | -69.19125 | 41067 ft | 476 kts | 343° |
| 2026-05-05 20:23 | 25.54308 | -69.20478 | 41066 ft | 476 kts | 342° |
| 2026-05-05 20:23 | 25.60818 | -69.21838 | 41065 ft | 476 kts | 342° |
| 2026-05-05 20:24 | 25.67333 | -69.23200 | 41065 ft | 475 kts | 342° |
| 2026-05-05 20:24 | 25.73812 | -69.24556 | 41068 ft | 475 kts | 342° |
| 2026-05-05 20:25 | 25.80316 | -69.25919 | 41068 ft | 474 kts | 342° |
| 2026-05-05 20:25 | 25.86768 | -69.27275 | 41069 ft | 474 kts | 342° |
| 2026-05-05 20:26 | 25.93262 | -69.28643 | 41069 ft | 474 kts | 342° |
| 2026-05-05 20:26 | 25.99765 | -69.30012 | 41072 ft | 474 kts | 342° |
| 2026-05-05 20:27 | 26.06210 | -69.31368 | 41075 ft | 474 kts | 342° |
| 2026-05-05 20:27 | 26.12708 | -69.32738 | 41074 ft | 474 kts | 342° |
| 2026-05-05 20:28 | 26.19206 | -69.34108 | 41077 ft | 474 kts | 342° |
| 2026-05-05 20:28 | 26.25663 | -69.35472 | 41079 ft | 474 kts | 342° |
| 2026-05-05 20:29 | 26.32151 | -69.36844 | 41075 ft | 474 kts | 342° |
| 2026-05-05 20:29 | 26.38643 | -69.38218 | 41070 ft | 474 kts | 342° |
| 2026-05-05 20:30 | 26.45096 | -69.39586 | 41074 ft | 474 kts | 342° |
| 2026-05-05 20:30 | 26.51593 | -69.40964 | 41080 ft | 473 kts | 342° |
| 2026-05-05 20:31 | 26.58038 | -69.42333 | 41079 ft | 473 kts | 342° |
| 2026-05-05 20:31 | 26.64524 | -69.43713 | 41081 ft | 473 kts | 342° |
| 2026-05-05 20:32 | 26.71002 | -69.45096 | 41080 ft | 473 kts | 342° |
| 2026-05-05 20:32 | 26.77442 | -69.46467 | 41083 ft | 472 kts | 342° |
| 2026-05-05 20:33 | 26.83884 | -69.47835 | 41083 ft | 472 kts | 341° |
| 2026-05-05 20:33 | 26.90357 | -69.49210 | 41088 ft | 472 kts | 341° |
| 2026-05-05 20:34 | 26.96786 | -69.50578 | 41088 ft | 472 kts | 341° |
| 2026-05-05 20:34 | 27.03250 | -69.51955 | 41090 ft | 472 kts | 341° |
| 2026-05-05 20:35 | 27.09705 | -69.53331 | 41088 ft | 472 kts | 341° |
| 2026-05-05 20:35 | 27.16167 | -69.54711 | 41095 ft | 472 kts | 341° |
| 2026-05-05 20:36 | 27.22609 | -69.56088 | 41086 ft | 472 kts | 341° |
| 2026-05-05 20:36 | 27.29052 | -69.57467 | 41092 ft | 472 kts | 341° |
| 2026-05-05 20:37 | 27.35530 | -69.58855 | 41092 ft | 472 kts | 341° |
| 2026-05-05 20:37 | 27.41979 | -69.60238 | 41099 ft | 472 kts | 341° |
| 2026-05-05 20:38 | 27.48458 | -69.61629 | 41095 ft | 472 kts | 341° |
| 2026-05-05 20:38 | 27.54888 | -69.63013 | 41098 ft | 473 kts | 341° |
| 2026-05-05 20:39 | 27.61367 | -69.64412 | 41097 ft | 473 kts | 341° |
| 2026-05-05 20:39 | 27.67794 | -69.65800 | 41096 ft | 473 kts | 341° |
| 2026-05-05 20:40 | 27.74277 | -69.67200 | 41098 ft | 473 kts | 341° |
| 2026-05-05 20:40 | 27.80759 | -69.68601 | 41101 ft | 473 kts | 341° |
| 2026-05-05 20:41 | 27.87196 | -69.69994 | 41100 ft | 474 kts | 341° |
| 2026-05-05 20:41 | 27.93693 | -69.71402 | 41105 ft | 473 kts | 341° |
| 2026-05-05 20:42 | 28.00134 | -69.72798 | 41105 ft | 473 kts | 341° |
| 2026-05-05 20:42 | 28.06624 | -69.74207 | 41108 ft | 473 kts | 341° |
| 2026-05-05 20:43 | 28.13064 | -69.75607 | 41109 ft | 473 kts | 341° |
| 2026-05-05 20:43 | 28.19545 | -69.77018 | 41106 ft | 473 kts | 341° |
| 2026-05-05 20:44 | 28.25999 | -69.78424 | 41107 ft | 473 kts | 341° |
| 2026-05-05 20:44 | 28.32485 | -69.79840 | 41100 ft | 473 kts | 341° |
| 2026-05-05 20:45 | 28.42159 | -69.81954 | 41111 ft | 473 kts | 341° |
| 2026-05-05 20:45 | 28.48642 | -69.83373 | 41115 ft | 473 kts | 341° |
| 2026-05-05 20:46 | 28.54026 | -69.84553 | 41113 ft | 473 kts | 341° |
| 2026-05-05 20:46 | 28.60522 | -69.85980 | 41119 ft | 473 kts | 341° |
| 2026-05-05 20:47 | 28.66958 | -69.87398 | 41118 ft | 473 kts | 341° |
| 2026-05-05 20:47 | 28.73434 | -69.88824 | 41118 ft | 473 kts | 341° |
| 2026-05-05 20:48 | 28.79922 | -69.90253 | 41125 ft | 473 kts | 341° |
| 2026-05-05 20:48 | 28.86383 | -69.91677 | 41126 ft | 473 kts | 341° |
| 2026-05-05 20:49 | 28.92811 | -69.93096 | 41122 ft | 473 kts | 341° |
| 2026-05-05 20:49 | 28.99303 | -69.94531 | 41119 ft | 473 kts | 341° |
| 2026-05-05 20:50 | 29.05738 | -69.95955 | 41123 ft | 473 kts | 341° |
| 2026-05-05 20:50 | 29.12173 | -69.97381 | 41125 ft | 473 kts | 341° |
| 2026-05-05 20:51 | 29.18637 | -69.98816 | 41126 ft | 472 kts | 341° |
| 2026-05-05 20:51 | 29.25099 | -70.00252 | 41126 ft | 472 kts | 341° |
| 2026-05-05 20:52 | 29.31527 | -70.01682 | 41128 ft | 471 kts | 341° |
| 2026-05-05 20:52 | 29.37984 | -70.03120 | 41130 ft | 471 kts | 342° |
| 2026-05-05 20:53 | 29.44389 | -70.04553 | 41130 ft | 470 kts | 342° |
| 2026-05-05 20:53 | 29.50822 | -70.05993 | 41128 ft | 470 kts | 342° |
| 2026-05-05 20:54 | 29.57247 | -70.07431 | 41129 ft | 470 kts | 342° |
| 2026-05-05 20:54 | 29.63653 | -70.08865 | 41136 ft | 469 kts | 342° |
| 2026-05-05 20:55 | 29.70024 | -70.10294 | 41137 ft | 469 kts | 342° |
| 2026-05-05 20:55 | 29.76453 | -70.11737 | 41133 ft | 469 kts | 342° |
| 2026-05-05 20:56 | 29.82854 | -70.13176 | 41135 ft | 469 kts | 342° |
| 2026-05-05 20:56 | 29.89266 | -70.14619 | 41135 ft | 469 kts | 342° |
| 2026-05-05 20:57 | 29.95631 | -70.16054 | 41135 ft | 469 kts | 342° |
| 2026-05-05 20:57 | 30.02043 | -70.17501 | 41140 ft | 469 kts | 342° |
| 2026-05-05 20:58 | 30.08429 | -70.18944 | 41141 ft | 469 kts | 342° |
| 2026-05-05 20:58 | 30.14845 | -70.20396 | 41141 ft | 469 kts | 342° |
| 2026-05-05 20:59 | 30.21225 | -70.21842 | 41143 ft | 469 kts | 342° |
| 2026-05-05 20:59 | 30.27559 | -70.23284 | 41141 ft | 469 kts | 342° |
| 2026-05-05 21:00 | 30.31733 | -70.24234 | 41144 ft | 469 kts | 342° |
| 2026-05-05 21:00 | 30.38149 | -70.25695 | 41132 ft | 469 kts | 342° |
| 2026-05-05 21:01 | 30.44561 | -70.27156 | 41142 ft | 470 kts | 342° |
| 2026-05-05 21:01 | 30.50987 | -70.28621 | 41149 ft | 470 kts | 342° |
| 2026-05-05 21:02 | 30.57394 | -70.30084 | 41153 ft | 471 kts | 342° |
| 2026-05-05 21:02 | 30.63845 | -70.31558 | 41150 ft | 472 kts | 342° |
| 2026-05-05 21:03 | 30.70257 | -70.33026 | 41153 ft | 472 kts | 342° |
| 2026-05-05 21:03 | 30.76716 | -70.34506 | 41151 ft | 472 kts | 342° |
| 2026-05-05 21:04 | 30.83187 | -70.35992 | 41154 ft | 473 kts | 342° |
| 2026-05-05 21:04 | 30.89629 | -70.37472 | 41156 ft | 473 kts | 342° |
| 2026-05-05 21:05 | 30.96076 | -70.38956 | 41154 ft | 474 kts | 342° |
| 2026-05-05 21:05 | 31.02567 | -70.40452 | 41163 ft | 474 kts | 342° |
| 2026-05-05 21:06 | 31.09022 | -70.41942 | 41161 ft | 475 kts | 342° |
| 2026-05-05 21:06 | 31.15515 | -70.43443 | 41153 ft | 475 kts | 342° |
| 2026-05-05 21:07 | 31.21978 | -70.44942 | 41161 ft | 476 kts | 342° |
| 2026-05-05 21:07 | 31.28475 | -70.46453 | 41167 ft | 476 kts | 342° |
| 2026-05-05 21:08 | 31.34986 | -70.47965 | 41168 ft | 476 kts | 342° |
| 2026-05-05 21:08 | 31.41493 | -70.49478 | 41169 ft | 476 kts | 342° |
| 2026-05-05 21:09 | 31.47971 | -70.50986 | 41166 ft | 476 kts | 342° |
| 2026-05-05 21:09 | 31.54483 | -70.52506 | 41170 ft | 476 kts | 342° |
| 2026-05-05 21:10 | 31.60963 | -70.54019 | 41170 ft | 477 kts | 342° |
| 2026-05-05 21:10 | 31.67470 | -70.55540 | 41169 ft | 476 kts | 342° |
| 2026-05-05 21:11 | 31.73973 | -70.57062 | 41172 ft | 476 kts | 342° |
| 2026-05-05 21:11 | 31.80471 | -70.58585 | 41175 ft | 476 kts | 342° |
| 2026-05-05 21:12 | 31.86957 | -70.60108 | 41173 ft | 476 kts | 342° |
| 2026-05-05 21:12 | 31.93462 | -70.61637 | 41175 ft | 476 kts | 342° |
| 2026-05-05 21:13 | 31.99969 | -70.63169 | 41171 ft | 475 kts | 342° |
| 2026-05-05 21:13 | 32.06429 | -70.64692 | 41177 ft | 475 kts | 343° |
| 2026-05-05 21:14 | 32.12915 | -70.66224 | 41180 ft | 475 kts | 343° |
| 2026-05-05 21:14 | 32.19357 | -70.67747 | 41178 ft | 474 kts | 343° |
| 2026-05-05 21:15 | 32.25824 | -70.69279 | 41178 ft | 474 kts | 343° |
| 2026-05-05 21:15 | 32.32288 | -70.70818 | 41180 ft | 473 kts | 343° |
| 2026-05-05 21:16 | 32.38743 | -70.72354 | 41181 ft | 473 kts | 343° |
| 2026-05-05 21:16 | 32.45193 | -70.73889 | 41180 ft | 473 kts | 343° |
| 2026-05-05 21:17 | 32.51640 | -70.75425 | 41186 ft | 472 kts | 343° |
| 2026-05-05 21:17 | 32.58082 | -70.76961 | 41188 ft | 472 kts | 343° |
| 2026-05-05 21:18 | 32.64532 | -70.78501 | 41187 ft | 471 kts | 343° |
| 2026-05-05 21:18 | 32.70938 | -70.80034 | 41178 ft | 471 kts | 343° |
| 2026-05-05 21:19 | 32.77335 | -70.81567 | 41184 ft | 470 kts | 343° |
| 2026-05-05 21:19 | 32.83759 | -70.83108 | 41182 ft | 470 kts | 343° |
| 2026-05-05 21:20 | 32.90181 | -70.84652 | 41184 ft | 470 kts | 343° |
| 2026-05-05 21:20 | 32.96565 | -70.86188 | 41194 ft | 469 kts | 343° |
| 2026-05-05 21:21 | 33.02956 | -70.87728 | 41187 ft | 469 kts | 343° |
| 2026-05-05 21:21 | 33.09368 | -70.89278 | 41189 ft | 469 kts | 343° |
| 2026-05-05 21:22 | 33.15767 | -70.90831 | 41193 ft | 469 kts | 343° |
| 2026-05-05 21:22 | 33.22128 | -70.92374 | 41190 ft | 468 kts | 344° |
| 2026-05-05 21:23 | 33.28534 | -70.93927 | 41196 ft | 468 kts | 344° |
| 2026-05-05 21:23 | 33.34899 | -70.95472 | 41192 ft | 467 kts | 344° |
| 2026-05-05 21:24 | 33.41280 | -70.97023 | 41196 ft | 466 kts | 344° |
| 2026-05-05 21:24 | 33.47615 | -70.98566 | 41196 ft | 466 kts | 344° |
| 2026-05-05 21:25 | 33.53941 | -71.00109 | 41195 ft | 465 kts | 344° |
| 2026-05-05 21:25 | 33.60292 | -71.01660 | 41195 ft | 464 kts | 344° |
| 2026-05-05 21:26 | 33.66628 | -71.03211 | 41195 ft | 463 kts | 344° |
| 2026-05-05 21:26 | 33.72926 | -71.04758 | 41194 ft | 462 kts | 344° |
| 2026-05-05 21:27 | 33.79207 | -71.06302 | 41194 ft | 462 kts | 344° |
| 2026-05-05 21:27 | 33.85516 | -71.07854 | 41193 ft | 461 kts | 344° |
| 2026-05-05 21:28 | 33.91786 | -71.09397 | 41196 ft | 461 kts | 344° |
| 2026-05-05 21:28 | 33.98074 | -71.10947 | 41200 ft | 460 kts | 344° |
| 2026-05-05 21:29 | 34.04342 | -71.12494 | 41198 ft | 460 kts | 344° |
| 2026-05-05 21:29 | 34.10613 | -71.14045 | 41191 ft | 460 kts | 344° |
| 2026-05-05 21:30 | 34.16892 | -71.15599 | 41199 ft | 459 kts | 344° |
| 2026-05-05 21:30 | 34.23122 | -71.17144 | 41203 ft | 459 kts | 344° |
| 2026-05-05 21:31 | 34.29390 | -71.18701 | 41203 ft | 459 kts | 344° |
| 2026-05-05 21:31 | 34.35614 | -71.20249 | 41198 ft | 459 kts | 344° |
| 2026-05-05 21:32 | 34.41890 | -71.21813 | 41203 ft | 459 kts | 344° |
| 2026-05-05 21:32 | 34.48115 | -71.23366 | 41199 ft | 459 kts | 344° |
| 2026-05-05 21:33 | 34.54364 | -71.24932 | 41200 ft | 458 kts | 344° |
| 2026-05-05 21:33 | 34.59599 | -71.26247 | 41201 ft | 458 kts | 344° |
| 2026-05-05 21:34 | 34.65808 | -71.27805 | 41198 ft | 458 kts | 344° |
| 2026-05-05 21:34 | 34.72062 | -71.29376 | 41201 ft | 458 kts | 344° |
| 2026-05-05 21:35 | 34.78276 | -71.30938 | 41204 ft | 458 kts | 344° |
| 2026-05-05 21:35 | 34.84555 | -71.32519 | 41198 ft | 458 kts | 344° |
| 2026-05-05 21:36 | 34.90751 | -71.34081 | 41200 ft | 457 kts | 344° |
| 2026-05-05 21:36 | 34.96985 | -71.35656 | 41197 ft | 457 kts | 344° |
| 2026-05-05 21:37 | 35.03213 | -71.37231 | 41199 ft | 457 kts | 344° |
| 2026-05-05 21:37 | 35.09444 | -71.38809 | 41197 ft | 457 kts | 344° |
| 2026-05-05 21:38 | 35.15647 | -71.40383 | 41199 ft | 456 kts | 344° |
| 2026-05-05 21:38 | 35.21888 | -71.41969 | 41199 ft | 456 kts | 344° |
| 2026-05-05 21:39 | 35.28080 | -71.43545 | 41198 ft | 456 kts | 344° |
| 2026-05-05 21:39 | 35.34297 | -71.45129 | 41199 ft | 456 kts | 344° |
| 2026-05-05 21:40 | 35.40504 | -71.46714 | 41196 ft | 455 kts | 344° |
| 2026-05-05 21:40 | 35.46706 | -71.48300 | 41195 ft | 455 kts | 344° |
| 2026-05-05 21:41 | 35.52903 | -71.49893 | 41193 ft | 455 kts | 344° |
| 2026-05-05 21:41 | 35.59097 | -71.51487 | 41195 ft | 455 kts | 344° |
| 2026-05-05 21:42 | 35.65248 | -71.53071 | 41193 ft | 454 kts | 344° |
| 2026-05-05 21:42 | 35.71436 | -71.54671 | 41192 ft | 454 kts | 344° |
| 2026-05-05 21:43 | 35.77621 | -71.56273 | 41189 ft | 454 kts | 344° |
| 2026-05-05 21:43 | 35.83808 | -71.57878 | 41191 ft | 454 kts | 344° |
| 2026-05-05 21:44 | 35.89995 | -71.59484 | 41187 ft | 454 kts | 344° |
| 2026-05-05 21:44 | 35.96188 | -71.61095 | 41185 ft | 454 kts | 344° |
| 2026-05-05 21:45 | 36.02374 | -71.62707 | 41185 ft | 454 kts | 344° |
| 2026-05-05 21:45 | 36.08568 | -71.64323 | 41182 ft | 454 kts | 344° |
| 2026-05-05 21:46 | 36.14760 | -71.65942 | 41182 ft | 454 kts | 344° |
| 2026-05-05 21:46 | 36.20930 | -71.67557 | 41184 ft | 454 kts | 344° |
| 2026-05-05 21:47 | 36.27127 | -71.69182 | 41180 ft | 454 kts | 344° |
| 2026-05-05 21:47 | 36.33277 | -71.70797 | 41179 ft | 454 kts | 344° |
| 2026-05-05 21:48 | 36.39463 | -71.72424 | 41173 ft | 454 kts | 344° |
| 2026-05-05 21:48 | 36.45663 | -71.74059 | 41173 ft | 454 kts | 344° |
| 2026-05-05 21:49 | 36.51804 | -71.75688 | 41175 ft | 454 kts | 344° |
| 2026-05-05 21:49 | 36.58004 | -71.77331 | 41168 ft | 453 kts | 344° |
| 2026-05-05 21:50 | 36.64141 | -71.78957 | 41160 ft | 453 kts | 344° |
| 2026-05-05 21:50 | 36.70341 | -71.80601 | 41162 ft | 453 kts | 344° |
| 2026-05-05 21:51 | 36.76491 | -71.82235 | 41168 ft | 453 kts | 344° |
| 2026-05-05 21:51 | 36.82672 | -71.83879 | 41156 ft | 453 kts | 344° |
| 2026-05-05 21:52 | 36.91898 | -71.86339 | 41148 ft | 453 kts | 344° |
| 2026-05-05 21:53 | 36.98075 | -71.87990 | 41141 ft | 453 kts | 344° |
| 2026-05-05 21:53 | 37.04245 | -71.89641 | 41157 ft | 453 kts | 344° |
| 2026-05-05 21:54 | 37.10371 | -71.91284 | 41145 ft | 453 kts | 344° |
| 2026-05-05 21:54 | 37.16547 | -71.92942 | 41144 ft | 453 kts | 344° |
| 2026-05-05 21:55 | 37.22693 | -71.94595 | 41144 ft | 452 kts | 344° |
| 2026-05-05 21:55 | 37.28837 | -71.96217 | 41138 ft | 453 kts | 347° |
| 2026-05-05 21:56 | 37.35192 | -71.96712 | 41136 ft | 458 kts | 356° |
| 2026-05-05 21:56 | 37.41543 | -71.96542 | 41133 ft | 459 kts | 358° |
| 2026-05-05 21:57 | 37.47948 | -71.96367 | 41131 ft | 459 kts | 357° |
| 2026-05-05 21:57 | 37.54301 | -71.96264 | 41129 ft | 458 kts | 357° |
| 2026-05-05 21:58 | 37.60712 | -71.96188 | 41130 ft | 459 kts | 357° |
| 2026-05-05 21:58 | 37.67066 | -71.96117 | 41125 ft | 458 kts | 357° |
| 2026-05-05 21:59 | 37.73461 | -71.96043 | 41125 ft | 459 kts | 357° |
| 2026-05-05 21:59 | 37.79852 | -71.95968 | 41125 ft | 458 kts | 357° |
| 2026-05-05 22:00 | 37.86203 | -71.95893 | 41123 ft | 459 kts | 357° |
| 2026-05-05 22:00 | 37.92590 | -71.95818 | 41120 ft | 459 kts | 357° |
| 2026-05-05 22:01 | 37.98980 | -71.95742 | 41116 ft | 458 kts | 357° |
| 2026-05-05 22:01 | 38.05332 | -71.95667 | 41108 ft | 458 kts | 357° |
| 2026-05-05 22:02 | 38.11718 | -71.95591 | 41115 ft | 459 kts | 357° |
| 2026-05-05 22:02 | 38.18106 | -71.95515 | 41112 ft | 459 kts | 356° |
| 2026-05-05 22:03 | 38.24468 | -71.95439 | 41103 ft | 459 kts | 356° |
| 2026-05-05 22:03 | 38.30867 | -71.95366 | 41106 ft | 459 kts | 356° |
| 2026-05-05 22:04 | 38.37223 | -71.95300 | 41099 ft | 459 kts | 356° |
| 2026-05-05 22:04 | 38.43626 | -71.95233 | 41100 ft | 459 kts | 356° |
| 2026-05-05 22:05 | 38.50035 | -71.95167 | 41096 ft | 459 kts | 356° |
| 2026-05-05 22:05 | 38.56414 | -71.95100 | 41095 ft | 460 kts | 356° |
| 2026-05-05 22:06 | 38.62827 | -71.95030 | 41088 ft | 460 kts | 356° |
| 2026-05-05 22:06 | 38.69196 | -71.94948 | 41087 ft | 460 kts | 356° |
| 2026-05-05 22:07 | 38.75602 | -71.94862 | 41076 ft | 460 kts | 356° |
| 2026-05-05 22:07 | 38.82006 | -71.94777 | 41081 ft | 460 kts | 356° |
| 2026-05-05 22:08 | 38.88425 | -71.94692 | 41078 ft | 461 kts | 356° |
| 2026-05-05 22:08 | 38.94816 | -71.94855 | 41071 ft | 457 kts | 349° |
| 2026-05-05 22:09 | 39.00839 | -71.97015 | 41063 ft | 446 kts | 330° |
| 2026-05-05 22:09 | 39.05883 | -72.01447 | 41069 ft | 441 kts | 317° |
| 2026-05-05 22:10 | 39.10542 | -72.06597 | 41061 ft | 441 kts | 316° |
| 2026-05-05 22:10 | 39.15220 | -72.11708 | 41054 ft | 441 kts | 317° |
| 2026-05-05 22:11 | 39.19945 | -72.16742 | 41048 ft | 441 kts | 317° |
| 2026-05-05 22:11 | 39.24685 | -72.21751 | 41046 ft | 440 kts | 318° |
| 2026-05-05 22:12 | 39.29424 | -72.26758 | 41036 ft | 440 kts | 317° |
| 2026-05-05 22:12 | 39.34151 | -72.31765 | 41034 ft | 439 kts | 317° |
| 2026-05-05 22:13 | 39.38870 | -72.36773 | 41030 ft | 439 kts | 317° |
| 2026-05-05 22:13 | 39.43552 | -72.41752 | 41023 ft | 438 kts | 317° |
| 2026-05-05 22:14 | 39.48285 | -72.46794 | 41014 ft | 437 kts | 317° |
| 2026-05-05 22:14 | 39.52945 | -72.51767 | 41007 ft | 437 kts | 317° |
| 2026-05-05 22:15 | 39.57638 | -72.56785 | 41000 ft | 437 kts | 317° |
| 2026-05-05 22:15 | 39.62317 | -72.61797 | 40997 ft | 436 kts | 317° |
| 2026-05-05 22:16 | 39.66993 | -72.66814 | 40994 ft | 436 kts | 317° |
| 2026-05-05 22:16 | 39.71675 | -72.71848 | 40605 ft | 437 kts | 317° |
| 2026-05-05 22:16 | 39.73990 | -72.74388 | 40142 ft | 434 kts | 315° |
| 2026-05-05 22:17 | 39.76163 | -72.77099 | 39560 ft | 432 kts | 310° |
| 2026-05-05 22:17 | 39.78075 | -72.80087 | 38836 ft | 428 kts | 303° |
| 2026-05-05 22:17 | 39.79631 | -72.83356 | 38010 ft | 425 kts | 296° |
| 2026-05-05 22:17 | 39.80810 | -72.86875 | 37153 ft | 426 kts | 289° |
| 2026-05-05 22:18 | 39.81609 | -72.90593 | 36340 ft | 429 kts | 283° |
| 2026-05-05 22:18 | 39.82019 | -72.94451 | 35679 ft | 433 kts | 276° |
| 2026-05-05 22:18 | 39.82083 | -72.98381 | 35103 ft | 437 kts | 272° |
| 2026-05-05 22:18 | 39.81973 | -73.02352 | 34541 ft | 441 kts | 270° |
| 2026-05-05 22:19 | 39.81809 | -73.06340 | 33957 ft | 443 kts | 270° |
| 2026-05-05 22:19 | 39.81643 | -73.10346 | 33306 ft | 444 kts | 270° |
| 2026-05-05 22:19 | 39.81493 | -73.14369 | 32707 ft | 446 kts | 271° |
| 2026-05-05 22:19 | 39.81359 | -73.18408 | 32116 ft | 448 kts | 271° |
| 2026-05-05 22:20 | 39.81277 | -73.21095 | 31728 ft | 449 kts | 271° |
| 2026-05-05 22:20 | 39.81452 | -73.26509 | 30944 ft | 448 kts | 281° |
| 2026-05-05 22:20 | 39.82182 | -73.30381 | 30331 ft | 447 kts | 290° |
| 2026-05-05 22:20 | 39.82916 | -73.32935 | 29894 ft | 446 kts | 293° |
| 2026-05-05 22:21 | 39.84150 | -73.36619 | 29183 ft | 443 kts | 295° |
| 2026-05-05 22:21 | 39.85835 | -73.41422 | 28333 ft | 438 kts | 295° |
| 2026-05-05 22:21 | 39.86673 | -73.43857 | 27916 ft | 435 kts | 294° |
| 2026-05-05 22:21 | 39.87610 | -73.47581 | 27289 ft | 433 kts | 282° |
| 2026-05-05 22:22 | 39.87850 | -73.51470 | 26700 ft | 431 kts | 269° |
| 2026-05-05 22:22 | 39.87352 | -73.55312 | 26161 ft | 431 kts | 255° |
| 2026-05-05 22:22 | 39.86134 | -73.58872 | 25764 ft | 433 kts | 242° |
| 2026-05-05 22:22 | 39.84267 | -73.61952 | 25393 ft | 437 kts | 227° |
| 2026-05-05 22:23 | 39.81849 | -73.64370 | 25019 ft | 441 kts | 214° |
| 2026-05-05 22:23 | 39.79024 | -73.65944 | 24759 ft | 445 kts | 199° |
| 2026-05-05 22:23 | 39.75954 | -73.66576 | 24582 ft | 451 kts | 185° |
| 2026-05-05 22:23 | 39.72813 | -73.66225 | 24407 ft | 457 kts | 171° |
| 2026-05-05 22:24 | 39.69793 | -73.64897 | 24236 ft | 461 kts | 156° |
| 2026-05-05 22:24 | 39.67080 | -73.62661 | 24058 ft | 464 kts | 142° |
| 2026-05-05 22:24 | 39.64865 | -73.59689 | 23891 ft | 466 kts | 128° |
| 2026-05-05 22:24 | 39.63167 | -73.56107 | 23723 ft | 466 kts | 117° |
| 2026-05-05 22:25 | 39.61789 | -73.52309 | 23551 ft | 466 kts | 114° |
| 2026-05-05 22:25 | 39.60520 | -73.48446 | 23355 ft | 465 kts | 112° |
| 2026-05-05 22:25 | 39.59295 | -73.44581 | 23158 ft | 463 kts | 112° |
| 2026-05-05 22:25 | 39.58085 | -73.40714 | 22846 ft | 462 kts | 112° |
| 2026-05-05 22:26 | 39.56889 | -73.36864 | 22327 ft | 458 kts | 112° |
| 2026-05-05 22:26 | 39.55816 | -73.32998 | 21780 ft | 456 kts | 104° |
| 2026-05-05 22:26 | 39.55402 | -73.28961 | 21251 ft | 451 kts | 89° |
| 2026-05-05 22:26 | 39.55779 | -73.24964 | 20722 ft | 445 kts | 73° |
| 2026-05-05 22:27 | 39.56915 | -73.21278 | 20204 ft | 439 kts | 58° |
| 2026-05-05 22:27 | 39.58726 | -73.18148 | 19684 ft | 431 kts | 42° |
| 2026-05-05 22:27 | 39.61070 | -73.15801 | 19182 ft | 423 kts | 26° |
| 2026-05-05 22:27 | 39.63761 | -73.14405 | 18682 ft | 413 kts | 9° |
| 2026-05-05 22:28 | 39.66578 | -73.14055 | 18182 ft | 403 kts | 353° |
| 2026-05-05 22:28 | 39.69281 | -73.14757 | 17614 ft | 392 kts | 336° |
| 2026-05-05 22:28 | 39.71633 | -73.16424 | 17075 ft | 381 kts | 319° |
| 2026-05-05 22:28 | 39.73687 | -73.18580 | 16500 ft | 378 kts | 317° |
| 2026-05-05 22:29 | 39.75723 | -73.20716 | 15914 ft | 374 kts | 317° |
| 2026-05-05 22:29 | 39.77741 | -73.22823 | 15336 ft | 369 kts | 316° |
| 2026-05-05 22:29 | 39.79527 | -73.25174 | 14780 ft | 362 kts | 306° |
| 2026-05-05 22:29 | 39.80994 | -73.27801 | 14231 ft | 356 kts | 300° |
| 2026-05-05 22:30 | 39.82211 | -73.30536 | 13679 ft | 336 kts | 295° |
| 2026-05-05 22:30 | 39.83210 | -73.33138 | 13057 ft | 309 kts | 292° |
| 2026-05-05 22:30 | 39.84073 | -73.35592 | 12474 ft | 289 kts | 291° |
| 2026-05-05 22:30 | 39.84852 | -73.37916 | 12084 ft | 276 kts | 290° |
| 2026-05-05 22:31 | 39.85596 | -73.40193 | 11704 ft | 274 kts | 290° |
| 2026-05-05 22:31 | 39.86330 | -73.42469 | 11327 ft | 270 kts | 289° |
| 2026-05-05 22:31 | 39.87049 | -73.44712 | 11123 ft | 267 kts | 289° |
| 2026-05-05 22:31 | 39.87762 | -73.46949 | 11098 ft | 268 kts | 289° |
| 2026-05-05 22:32 | 39.88473 | -73.49188 | 11088 ft | 268 kts | 289° |
| 2026-05-05 22:32 | 39.89185 | -73.51433 | 11076 ft | 268 kts | 289° |
| 2026-05-05 22:32 | 39.89897 | -73.53682 | 11080 ft | 268 kts | 289° |
| 2026-05-05 22:32 | 39.90598 | -73.55899 | 11083 ft | 268 kts | 289° |
| 2026-05-05 22:33 | 39.91307 | -73.58143 | 11080 ft | 268 kts | 289° |
| 2026-05-05 22:33 | 39.92024 | -73.60388 | 11074 ft | 269 kts | 290° |
| 2026-05-05 22:33 | 39.92808 | -73.62600 | 11064 ft | 269 kts | 292° |
| 2026-05-05 22:33 | 39.93625 | -73.64791 | 11065 ft | 269 kts | 292° |
| 2026-05-05 22:34 | 39.94451 | -73.66982 | 11066 ft | 269 kts | 293° |
| 2026-05-05 22:34 | 39.95325 | -73.69149 | 11065 ft | 271 kts | 296° |
| 2026-05-05 22:34 | 39.96374 | -73.71199 | 11068 ft | 273 kts | 303° |
| 2026-05-05 22:34 | 39.97649 | -73.73051 | 11067 ft | 276 kts | 312° |
| 2026-05-05 22:35 | 39.99145 | -73.74638 | 11062 ft | 280 kts | 320° |
| 2026-05-05 22:35 | 40.00810 | -73.75906 | 10786 ft | 274 kts | 329° |
| 2026-05-05 22:35 | 40.02637 | -73.76826 | 10436 ft | 285 kts | 338° |
| 2026-05-05 22:35 | 40.04594 | -73.77366 | 10135 ft | 290 kts | 347° |
| 2026-05-05 22:36 | 40.06619 | -73.77492 | 10069 ft | 294 kts | 356° |
| 2026-05-05 22:36 | 40.08669 | -73.77192 | 10044 ft | 299 kts | 5° |
| 2026-05-05 22:36 | 40.10684 | -73.76447 | 10043 ft | 303 kts | 15° |
| 2026-05-05 22:36 | 40.12599 | -73.75260 | 10046 ft | 308 kts | 25° |
| 2026-05-05 22:37 | 40.14382 | -73.73686 | 10046 ft | 310 kts | 32° |
| 2026-05-05 22:37 | 40.16070 | -73.71983 | 10045 ft | 311 kts | 34° |
| 2026-05-05 22:37 | 40.17764 | -73.70227 | 10048 ft | 311 kts | 34° |
| 2026-05-05 22:37 | 40.19460 | -73.68474 | 10044 ft | 310 kts | 34° |
| 2026-05-05 22:38 | 40.21158 | -73.66731 | 10047 ft | 310 kts | 33° |
| 2026-05-05 22:38 | 40.22857 | -73.64998 | 10047 ft | 310 kts | 33° |
| 2026-05-05 22:38 | 40.24563 | -73.63264 | 10046 ft | 310 kts | 33° |
| 2026-05-05 22:38 | 40.26265 | -73.61539 | 10048 ft | 310 kts | 33° |
| 2026-05-05 22:39 | 40.27970 | -73.59813 | 10042 ft | 309 kts | 33° |
| 2026-05-05 22:39 | 40.29672 | -73.58090 | 10046 ft | 309 kts | 33° |
| 2026-05-05 22:39 | 40.31380 | -73.56380 | 10048 ft | 308 kts | 31° |
| 2026-05-05 22:39 | 40.33243 | -73.55077 | 10044 ft | 300 kts | 14° |
| 2026-05-05 22:40 | 40.35200 | -73.54367 | 9670 ft | 281 kts | 7° |
| 2026-05-05 22:40 | 40.37112 | -73.53869 | 8586 ft | 279 kts | 4° |
| 2026-05-05 22:40 | 40.39010 | -73.53433 | 8006 ft | 279 kts | 4° |
| 2026-05-05 22:40 | 40.40916 | -73.52998 | 7636 ft | 278 kts | 4° |
| 2026-05-05 22:41 | 40.42818 | -73.52555 | 7270 ft | 277 kts | 5° |
| 2026-05-05 22:41 | 40.44712 | -73.52105 | 7064 ft | 277 kts | 5° |
| 2026-05-05 22:41 | 40.46608 | -73.51650 | 7034 ft | 277 kts | 5° |
| 2026-05-05 22:41 | 40.48503 | -73.51191 | 7025 ft | 277 kts | 5° |
| 2026-05-05 22:42 | 40.50397 | -73.50729 | 7024 ft | 277 kts | 5° |
| 2026-05-05 22:42 | 40.52290 | -73.50266 | 7023 ft | 276 kts | 5° |
| 2026-05-05 22:42 | 40.54176 | -73.49803 | 7002 ft | 273 kts | 5° |
| 2026-05-05 22:42 | 40.56011 | -73.49347 | 6596 ft | 267 kts | 5° |
| 2026-05-05 22:43 | 40.57811 | -73.48903 | 6235 ft | 265 kts | 5° |
| 2026-05-05 22:43 | 40.59611 | -73.48460 | 6044 ft | 263 kts | 5° |
| 2026-05-05 22:43 | 40.61417 | -73.48016 | 6024 ft | 263 kts | 5° |
| 2026-05-05 22:43 | 40.63213 | -73.47572 | 6014 ft | 263 kts | 5° |
| 2026-05-05 22:44 | 40.65000 | -73.47131 | 6018 ft | 258 kts | 5° |
| 2026-05-05 22:44 | 40.66744 | -73.46697 | 6015 ft | 253 kts | 5° |
| 2026-05-05 22:44 | 40.68455 | -73.46142 | 6017 ft | 255 kts | 15° |
| 2026-05-05 22:44 | 40.70087 | -73.45240 | 5854 ft | 244 kts | 20° |
| 2026-05-05 22:45 | 40.71613 | -73.44291 | 4871 ft | 245 kts | 21° |
| 2026-05-05 22:45 | 40.73181 | -73.43302 | 4509 ft | 251 kts | 20° |
| 2026-05-05 22:45 | 40.74834 | -73.42645 | 4148 ft | 246 kts | 1° |
| 2026-05-05 22:45 | 40.76490 | -73.42858 | 4025 ft | 236 kts | 336° |
| 2026-05-05 22:46 | 40.77864 | -73.43937 | 4011 ft | 227 kts | 310° |
| 2026-05-05 22:46 | 40.78817 | -73.45567 | 4036 ft | 223 kts | 298° |
| 2026-05-05 22:46 | 40.79599 | -73.47216 | 4010 ft | 205 kts | 297° |
| 2026-05-05 22:46 | 40.80331 | -73.48808 | 4004 ft | 202 kts | 296° |
| 2026-05-05 22:47 | 40.81039 | -73.50349 | 4014 ft | 184 kts | 296° |
| 2026-05-05 22:47 | 40.81638 | -73.51806 | 3978 ft | 177 kts | 287° |
| 2026-05-05 22:47 | 40.81924 | -73.53357 | 4007 ft | 173 kts | 271° |
| 2026-05-05 22:47 | 40.81816 | -73.54917 | 3959 ft | 165 kts | 255° |
| 2026-05-05 22:48 | 40.81495 | -73.56347 | 3370 ft | 166 kts | 251° |
| 2026-05-05 22:48 | 40.81131 | -73.57810 | 3081 ft | 168 kts | 251° |
| 2026-05-05 22:48 | 40.80764 | -73.59280 | 3012 ft | 170 kts | 250° |
| 2026-05-05 22:48 | 40.80395 | -73.60743 | 3017 ft | 169 kts | 250° |
| 2026-05-05 22:49 | 40.80022 | -73.62147 | 2549 ft | 151 kts | 245° |
| 2026-05-05 22:49 | 40.79496 | -73.63254 | 2125 ft | 137 kts | 227° |
| 2026-05-05 22:49 | 40.78779 | -73.63993 | 1784 ft | 130 kts | 214° |
| 2026-05-05 22:49 | 40.78027 | -73.64622 | 1829 ft | 125 kts | 214° |
| 2026-05-05 22:50 | 40.77301 | -73.65230 | 1841 ft | 122 kts | 214° |
| 2026-05-05 22:50 | 40.76575 | -73.65833 | 1796 ft | 125 kts | 214° |
| 2026-05-05 22:50 | 40.75835 | -73.66442 | 1815 ft | 126 kts | 213° |
| 2026-05-05 22:50 | 40.75103 | -73.67074 | 1830 ft | 125 kts | 216° |
| 2026-05-05 22:51 | 40.74379 | -73.67695 | 1783 ft | 124 kts | 216° |
| 2026-05-05 22:51 | 40.73648 | -73.68302 | 1813 ft | 124 kts | 213° |
| 2026-05-05 22:51 | 40.72902 | -73.68885 | 1802 ft | 125 kts | 213° |
| 2026-05-05 22:51 | 40.72154 | -73.69474 | 1750 ft | 124 kts | 213° |
| 2026-05-05 22:52 | 40.71417 | -73.70054 | 1572 ft | 123 kts | 213° |
| 2026-05-05 22:52 | 40.70687 | -73.70632 | 1397 ft | 123 kts | 211° |
| 2026-05-05 22:52 | 40.69947 | -73.71211 | 1239 ft | 123 kts | 210° |
| 2026-05-05 22:52 | 40.69214 | -73.71789 | 1073 ft | 123 kts | 210° |
| 2026-05-05 22:53 | 40.68726 | -73.72172 | 975 ft | 122 kts | 211° |
| 2026-05-05 22:53 | 40.68014 | -73.72739 | 826 ft | 122 kts | 208° |
| 2026-05-05 22:53 | 40.67297 | -73.73304 | 649 ft | 117 kts | 206° |
| 2026-05-05 22:53 | 40.66617 | -73.73838 | 488 ft | 112 kts | 206° |
| 2026-05-05 22:54 | 40.65950 | -73.74357 | 311 ft | 112 kts | 206° |
| 2026-05-05 22:54 | 40.65294 | -73.74885 | 248 ft | 110 kts | 207° |
| 2026-05-05 22:54 | 40.64647 | -73.75400 | 102 ft | 108 kts | 205° |
| 2026-05-05 22:54 | 40.64017 | -73.75874 | 27 ft | 91 kts | 212° |
| 2026-05-05 22:55 | 40.63600 | -73.76204 | 31 ft | 48 kts | 211° |
| 2026-05-05 22:55 | 40.63412 | -73.76358 | 26 ft | 20 kts | 214° |
| 2026-05-05 22:55 | 40.63318 | -73.76466 | 29 ft | 17 kts | 228° |
| 2026-05-05 22:55 | 40.63257 | -73.76589 | 26 ft | 16 kts | 244° |
| 2026-05-05 22:56 | 40.63246 | -73.76727 | 26 ft | 15 kts | 286° |
| 2026-05-05 22:56 | 40.63295 | -73.76845 | 28 ft | 15 kts | 301° |
| 2026-05-05 22:56 | 40.63349 | -73.76963 | 27 ft | 15 kts | 299° |
| 2026-05-05 22:56 | 40.63402 | -73.77082 | 26 ft | 15 kts | 301° |
| 2026-05-05 22:57 | 40.63457 | -73.77203 | 24 ft | 15 kts | 301° |
| 2026-05-05 22:57 | 40.63503 | -73.77303 | 25 ft | 10 kts | 301° |
| 2026-05-05 22:57 | 40.63524 | -73.77348 | 26 ft | 0 kts | 301° |
| 2026-05-05 22:59 | 40.63526 | -73.77353 | 26 ft | 3 kts | 301° |
| 2026-05-05 22:59 | 40.63546 | -73.77397 | 28 ft | 8 kts | 301° |
| 2026-05-05 22:59 | 40.63580 | -73.77473 | 27 ft | 12 kts | 300° |
| 2026-05-05 22:59 | 40.63630 | -73.77574 | 29 ft | 8 kts | 312° |
| 2026-05-05 23:00 | 40.63714 | -73.77547 | 25 ft | 11 kts | 30° |
| 2026-05-05 23:00 | 40.63785 | -73.77490 | 25 ft | 13 kts | 32° |
| 2026-05-05 23:00 | 40.63861 | -73.77431 | 26 ft | 13 kts | 31° |
| 2026-05-05 23:01 | 40.63938 | -73.77371 | 25 ft | 13 kts | 31° |
| 2026-05-05 23:01 | 40.64020 | -73.77305 | 29 ft | 14 kts | 31° |
| 2026-05-05 23:01 | 40.64108 | -73.77238 | 25 ft | 15 kts | 30° |
| 2026-05-05 23:01 | 40.64199 | -73.77166 | 27 ft | 16 kts | 31° |
| 2026-05-05 23:02 | 40.64296 | -73.77090 | 26 ft | 17 kts | 30° |
| 2026-05-05 23:02 | 40.64401 | -73.77014 | 25 ft | 18 kts | 25° |
| 2026-05-05 23:02 | 40.64520 | -73.76987 | 24 ft | 18 kts | 2° |
| 2026-05-05 23:02 | 40.64642 | -73.76991 | 29 ft | 17 kts | 352° |
| 2026-05-05 23:03 | 40.64740 | -73.77049 | 26 ft | 14 kts | 321° |
| 2026-05-05 23:03 | 40.64800 | -73.77151 | 26 ft | 14 kts | 302° |
| 2026-05-05 23:03 | 40.64850 | -73.77262 | 26 ft | 15 kts | 300° |
| 2026-05-05 23:03 | 40.64903 | -73.77380 | 28 ft | 15 kts | 300° |
| 2026-05-05 23:04 | 40.64958 | -73.77504 | 25 ft | 16 kts | 301° |
| 2026-05-05 23:04 | 40.65016 | -73.77630 | 25 ft | 16 kts | 301° |
| 2026-05-05 23:04 | 40.65075 | -73.77760 | 28 ft | 17 kts | 301° |
| 2026-05-05 23:04 | 40.65137 | -73.77893 | 28 ft | 17 kts | 301° |
| 2026-05-05 23:05 | 40.65198 | -73.78027 | 26 ft | 17 kts | 301° |
| 2026-05-05 23:05 | 40.65259 | -73.78162 | 28 ft | 17 kts | 301° |
| 2026-05-05 23:05 | 40.65321 | -73.78300 | 28 ft | 16 kts | 301° |
| 2026-05-05 23:05 | 40.65357 | -73.78433 | 26 ft | 15 kts | 263° |
| 2026-05-05 23:06 | 40.65316 | -73.78566 | 24 ft | 16 kts | 243° |
| 2026-05-05 23:06 | 40.65271 | -73.78677 | 27 ft | 12 kts | 241° |
| 2026-05-05 23:06 | 40.65228 | -73.78797 | 26 ft | 15 kts | 253° |
| 2026-05-05 23:06 | 40.65195 | -73.78894 | 23 ft | 8 kts | 217° |
| 2026-05-05 23:07 | 40.65149 | -73.78907 | 25 ft | 7 kts | 185° |
| 2026-05-05 23:07 | 40.65101 | -73.78912 | 24 ft | 7 kts | 185° |
| 2026-05-05 23:07 | 40.65056 | -73.78929 | 25 ft | 7 kts | 201° |
| 2026-05-05 23:07 | 40.65027 | -73.78943 | 24 ft | 7 kts | 199° |
| 2026-05-05 23:08 | 40.64988 | -73.78961 | 24 ft | 5 kts | 198° |
| 2026-05-05 23:08 | 40.64972 | -73.78968 | 25 ft | 2 kts | 198° |
| 2026-05-05 23:08 | 40.64956 | -73.78974 | 26 ft | 3 kts | 198° |
| 2026-05-05 23:08 | 40.64950 | -73.78977 | 27 ft | 0 kts | 198° |
| 2026-05-05 23:09 | 40.64948 | -73.78978 | 24 ft | 0 kts | 199° |